Princeton Municipal Airport


Codes: KPNN/
Name: Princeton Municipal Airport
City: Princeton
Country: United States
Elevation: 266 ft.

Photos at Princeton Municipal Airport


   Photos courtesy of SpottingLog. You can add your own sightings and photos by signing up for a free trial today.



No photos found.

Weather at Princeton Municipal Airport


Time (UTC)DescriptionTempratureWindCloud coverageVisibilityPressureHumidity
16-Jun-2024 12:00Clear Sky11°C9 mph, N7%10000m1021hPa68%
16-Jun-2024 15:00Clear Sky16°C9 mph, N3%10000m1021hPa47%
16-Jun-2024 18:00Clear Sky22°C7 mph, NW0%10000m1021hPa28%
16-Jun-2024 21:00Clear Sky23°C7 mph, NW0%10000m1021hPa30%
17-Jun-2024 00:00Clear Sky16°C2 mph, SW0%10000m1021hPa61%
17-Jun-2024 03:00Clear Sky11°C4 mph, SW1%10000m1022hPa75%
17-Jun-2024 06:00Broken Clouds10°C4 mph, SW51%10000m1023hPa72%
17-Jun-2024 09:00Overcast Clouds10°C4 mph, SW100%10000m1023hPa71%
17-Jun-2024 12:00Overcast Clouds17°C9 mph, SW100%10000m1022hPa57%
17-Jun-2024 15:00Overcast Clouds21°C9 mph, SW100%10000m1022hPa47%
17-Jun-2024 18:00Overcast Clouds17°C9 mph, S100%10000m1022hPa67%
17-Jun-2024 21:00Overcast Clouds16°C9 mph, S100%10000m1021hPa70%
18-Jun-2024 00:00Overcast Clouds15°C7 mph, S100%10000m1021hPa72%
18-Jun-2024 03:00Overcast Clouds14°C7 mph, S96%10000m1022hPa76%
18-Jun-2024 06:00Overcast Clouds13°C4 mph, S94%10000m1022hPa93%
18-Jun-2024 09:00Overcast Clouds12°C4 mph, S91%10000m1022hPa99%
18-Jun-2024 12:00Overcast Clouds19°C4 mph, S90%10000m1023hPa76%
18-Jun-2024 15:00Broken Clouds27°C4 mph, S78%10000m1022hPa55%
18-Jun-2024 18:00Overcast Clouds30°C7 mph, S87%10000m1021hPa48%
18-Jun-2024 21:00Overcast Clouds29°C11 mph, S97%10000m1021hPa56%
19-Jun-2024 00:00Overcast Clouds21°C7 mph, S94%10000m1022hPa84%
19-Jun-2024 03:00Light Rain17°C4 mph, SW61%10000m1024hPa98%
19-Jun-2024 06:00Light Rain17°C4 mph, S80%10000m1022hPa98%
19-Jun-2024 09:00Overcast Clouds17°C4 mph, S100%10000m1022hPa97%
19-Jun-2024 12:00Broken Clouds23°C2 mph, SW67%10000m1023hPa84%
19-Jun-2024 15:00Scattered Clouds32°C4 mph, W37%10000m1022hPa50%
19-Jun-2024 18:00Few Clouds36°C7 mph, W20%10000m1020hPa36%
19-Jun-2024 21:00Scattered Clouds36°C9 mph, W26%10000m1018hPa36%
20-Jun-2024 00:00Broken Clouds27°C9 mph, SW56%10000m1020hPa73%
20-Jun-2024 03:00Broken Clouds24°C7 mph, SW78%10000m1020hPa78%
20-Jun-2024 06:00Overcast Clouds22°C4 mph, W87%10000m1020hPa85%
20-Jun-2024 09:00Overcast Clouds23°C4 mph, W100%10000m1020hPa82%
20-Jun-2024 12:00Overcast Clouds28°C9 mph, W95%10000m1020hPa64%
20-Jun-2024 15:00Broken Clouds33°C11 mph, NW64%10000m1019hPa44%
20-Jun-2024 18:00Broken Clouds35°C11 mph, W82%10000m1018hPa36%
20-Jun-2024 21:00Overcast Clouds34°C11 mph, NW100%10000m1017hPa39%
21-Jun-2024 00:00Broken Clouds25°C7 mph, N79%10000m1018hPa79%
21-Jun-2024 03:00Overcast Clouds23°C4 mph, NW99%10000m1019hPa86%
21-Jun-2024 06:00Overcast Clouds21°C4 mph, N97%10000m1020hPa93%
21-Jun-2024 09:00Light Rain18°C4 mph, NW86%10000m1020hPa89%